Time;durP1;ratioP1;P1;durP2;ratioP2;P2;SDS_P1;SDS_P2;PMS_P1;PMS_P2;Temp;Humidity;BMP_temperature;BMP_pressure;BME280_temperature;BME280_humidity;BME280_pressure;Samples;Min_cycle;Max_cycle;Signal;HPM_P1;HPM_P2
2023/04/27 00:00:16;;;;;;;20.08;11.98;;;3.90;99.90;;;;;;2088110;28;20044;-70
2023/04/27 00:01:16;;;;;;;20.42;12.02;;;3.90;99.90;;;;;;2086082;28;20578;-70
2023/04/27 00:02:17;;;;;;;20.55;11.63;;;3.90;99.90;;;;;;2077785;28;20029;-70
2023/04/27 00:03:17;;;;;;;24.27;12.82;;;3.90;99.90;;;;;;2081759;28;20120;-70
2023/04/27 00:04:19;;;;;;;24.00;12.00;;;3.90;99.90;;;;;;2081720;28;20112;-70
2023/04/27 00:05:20;;;;;;;21.70;11.63;;;3.90;99.90;;;;;;2075475;28;20029;-70
2023/04/27 00:06:20;;;;;;;22.02;11.98;;;3.90;99.90;;;;;;2067405;28;20030;-70
2023/04/27 00:07:21;;;;;;;25.55;12.15;;;3.90;99.90;;;;;;2081608;28;20524;-70
2023/04/27 00:08:21;;;;;;;21.27;11.38;;;3.90;99.90;;;;;;2081345;28;20029;-70
2023/04/27 00:09:22;;;;;;;22.08;11.75;;;3.90;99.90;;;;;;2078563;28;20052;-70
2023/04/27 00:10:23;;;;;;;22.63;11.75;;;3.80;99.90;;;;;;2090367;28;20136;-71
2023/04/27 00:11:23;;;;;;;20.13;11.68;;;3.80;99.90;;;;;;2081610;28;20025;-70
2023/04/27 00:12:24;;;;;;;22.80;12.02;;;3.80;99.90;;;;;;2081589;28;20021;-70
2023/04/27 00:13:25;;;;;;;22.55;11.43;;;3.80;99.90;;;;;;2090721;28;20071;-70
2023/04/27 00:14:27;;;;;;;23.10;12.13;;;3.80;99.90;;;;;;2087631;28;20028;-70
2023/04/27 00:15:28;;;;;;;24.88;11.63;;;3.80;99.90;;;;;;2078840;28;20147;-71
2023/04/27 00:16:28;;;;;;;23.42;12.02;;;3.80;99.90;;;;;;2086517;28;20432;-73
2023/04/27 00:17:29;;;;;;;24.20;12.52;;;3.80;99.90;;;;;;2090823;28;20055;-74
2023/04/27 00:18:31;;;;;;;25.25;12.90;;;3.70;99.90;;;;;;2083820;28;20036;-70
2023/04/27 00:19:32;;;;;;;26.15;12.48;;;3.70;99.90;;;;;;2079040;28;20048;-69
2023/04/27 00:20:33;;;;;;;21.58;11.80;;;3.70;99.90;;;;;;2086280;28;20039;-69
2023/04/27 00:21:33;;;;;;;20.90;11.05;;;3.70;99.90;;;;;;2081710;28;20103;-69
2023/04/27 00:22:34;;;;;;;20.17;11.27;;;3.70;99.90;;;;;;2090345;28;20024;-70
2023/04/27 00:23:35;;;;;;;21.27;11.20;;;3.70;99.90;;;;;;2090546;28;20037;-70
2023/04/27 00:24:35;;;;;;;22.98;11.13;;;3.70;99.90;;;;;;2083887;28;20021;-69
2023/04/27 00:25:36;;;;;;;23.63;12.00;;;3.70;99.90;;;;;;2083348;28;20729;-71
2023/04/27 00:26:37;;;;;;;20.10;11.60;;;3.70;99.90;;;;;;2090395;28;20028;-68
2023/04/27 00:27:37;;;;;;;18.83;10.90;;;3.70;99.90;;;;;;2090434;28;20122;-68
2023/04/27 00:28:38;;;;;;;21.63;11.18;;;3.70;99.90;;;;;;2091983;28;20082;-68
2023/04/27 00:29:42;;;;;;;21.17;10.32;;;3.70;99.90;;;;;;2097707;28;20024;-68
2023/04/27 00:30:43;;;;;;;18.35;11.00;;;3.70;99.90;;;;;;2091859;28;20479;-68
2023/04/27 00:31:44;;;;;;;17.80;10.38;;;3.70;99.90;;;;;;2093422;28;20033;-69
2023/04/27 00:32:45;;;;;;;14.93;9.52;;;3.70;99.90;;;;;;2090300;28;20036;-68
2023/04/27 00:33:45;;;;;;;18.75;10.07;;;3.70;99.90;;;;;;2092354;28;20051;-69
2023/04/27 00:34:46;;;;;;;18.55;9.52;;;3.70;99.90;;;;;;2090534;28;20059;-68
2023/04/27 00:35:46;;;;;;;16.20;9.73;;;3.70;99.90;;;;;;2090243;28;20024;-68
2023/04/27 00:36:48;;;;;;;14.45;9.30;;;3.70;99.90;;;;;;2089459;28;20024;-69
2023/04/27 00:37:48;;;;;;;18.02;10.30;;;3.70;99.90;;;;;;2090447;28;20395;-68
2023/04/27 00:38:49;;;;;;;21.58;10.75;;;3.70;99.90;;;;;;2092649;28;20052;-69
2023/04/27 00:39:49;;;;;;;20.35;11.35;;;3.70;99.90;;;;;;2081684;28;20359;-69
2023/04/27 00:40:50;;;;;;;21.80;11.32;;;3.60;99.90;;;;;;2082249;28;20064;-69
2023/04/27 00:41:51;;;;;;;20.13;10.93;;;3.70;99.90;;;;;;2090696;28;20028;-68
2023/04/27 00:42:51;;;;;;;17.30;10.65;;;3.60;99.90;;;;;;2083439;28;20029;-68
2023/04/27 00:43:52;;;;;;;19.38;11.30;;;3.60;99.90;;;;;;2081818;28;20033;-68
2023/04/27 00:44:55;;;;;;;20.63;11.80;;;3.60;99.90;;;;;;2081327;28;20506;-68
2023/04/27 00:45:57;;;;;;;25.33;11.95;;;3.60;99.90;;;;;;2073723;28;20041;-69
2023/04/27 00:46:58;;;;;;;21.17;11.38;;;3.60;99.90;;;;;;2081504;28;20033;-69
2023/04/27 00:47:59;;;;;;;24.83;11.70;;;3.60;99.90;;;;;;2092340;28;20041;-69
2023/04/27 00:49:00;;;;;;;17.80;10.40;;;3.60;99.90;;;;;;2090394;28;20032;-69
2023/04/27 00:50:00;;;;;;;17.83;10.38;;;3.60;99.90;;;;;;2090319;28;20563;-68
2023/04/27 00:51:01;;;;;;;19.23;11.30;;;3.60;99.90;;;;;;2081443;28;20105;-68
2023/04/27 00:52:02;;;;;;;21.45;11.07;;;3.60;99.90;;;;;;2083619;28;20519;-68
2023/04/27 00:53:04;;;;;;;22.70;11.70;;;3.60;99.90;;;;;;2088134;28;20115;-69
2023/04/27 00:54:05;;;;;;;20.38;11.25;;;3.50;99.90;;;;;;2081449;28;20033;-69
2023/04/27 00:55:06;;;;;;;18.80;11.27;;;3.60;99.90;;;;;;2065012;28;20037;-69
2023/04/27 00:56:07;;;;;;;21.38;11.50;;;3.60;99.90;;;;;;2069920;28;20163;-69
2023/04/27 00:57:07;;;;;;;23.40;11.40;;;3.60;99.90;;;;;;2082237;28;20037;-69
2023/04/27 00:58:08;;;;;;;21.33;11.38;;;3.60;99.90;;;;;;2088176;28;20376;-69
2023/04/27 00:59:09;;;;;;;20.45;11.25;;;3.60;99.90;;;;;;2093201;28;20024;-68
2023/04/27 01:00:10;;;;;;;19.10;11.20;;;3.50;99.90;;;;;;2085051;28;20120;-68
2023/04/27 01:01:11;;;;;;;18.73;11.43;;;3.50;99.90;;;;;;2084871;28;20324;-68
2023/04/27 01:02:12;;;;;;;18.10;10.20;;;3.50;99.90;;;;;;2092410;28;20013;-69
2023/04/27 01:03:13;;;;;;;18.50;10.82;;;3.50;99.90;;;;;;2081405;28;20559;-69
2023/04/27 01:04:13;;;;;;;17.25;10.65;;;3.50;99.90;;;;;;2073240;28;20104;-68
2023/04/27 01:05:14;;;;;;;21.27;10.85;;;3.50;99.90;;;;;;2081488;28;20408;-69
2023/04/27 01:06:15;;;;;;;19.48;10.80;;;3.50;99.90;;;;;;2079492;28;20025;-68
2023/04/27 01:07:17;;;;;;;18.35;10.60;;;3.50;99.90;;;;;;2073213;28;20120;-68
2023/04/27 01:08:18;;;;;;;19.85;10.32;;;3.50;99.90;;;;;;2073009;28;20037;-68
2023/04/27 01:09:18;;;;;;;20.98;11.10;;;3.50;99.90;;;;;;2076852;28;20053;-68
2023/04/27 01:10:19;;;;;;;18.88;11.20;;;3.50;99.90;;;;;;2093385;28;20040;-68
2023/04/27 01:11:20;;;;;;;17.90;10.90;;;3.50;99.90;;;;;;2075426;28;20033;-68
2023/04/27 01:12:21;;;;;;;18.40;10.73;;;3.50;99.90;;;;;;2085518;28;20037;-69
2023/04/27 01:13:22;;;;;;;17.83;10.25;;;3.50;99.90;;;;;;2089433;28;20063;-69
2023/04/27 01:14:23;;;;;;;17.50;10.48;;;3.50;99.90;;;;;;2073094;28;20033;-69
2023/04/27 01:15:24;;;;;;;18.75;10.95;;;3.40;99.90;;;;;;2073280;28;20053;-69
2023/04/27 01:16:25;;;;;;;18.13;10.63;;;3.40;99.90;;;;;;2076915;28;20084;-69
2023/04/27 01:17:25;;;;;;;16.83;10.20;;;3.40;99.90;;;;;;2092436;28;20282;-69
2023/04/27 01:18:26;;;;;;;18.20;10.05;;;3.40;99.90;;;;;;2090192;28;20032;-69
2023/04/27 01:19:27;;;;;;;17.80;10.85;;;3.40;99.90;;;;;;2083501;28;20303;-69
2023/04/27 01:20:29;;;;;;;17.98;10.95;;;3.40;99.90;;;;;;2073034;28;20037;-69
2023/04/27 01:21:29;;;;;;;15.55;10.10;;;3.40;99.90;;;;;;2064901;28;20038;-69
2023/04/27 01:22:32;;;;;;;17.73;10.48;;;3.40;99.90;;;;;;2073032;28;20049;-69
2023/04/27 01:23:33;;;;;;;15.07;9.95;;;3.40;99.90;;;;;;2079696;28;20041;-69
2023/04/27 01:24:33;;;;;;;17.83;10.68;;;3.40;99.90;;;;;;2090575;28;20048;-69
2023/04/27 01:25:34;;;;;;;17.48;10.88;;;3.40;99.90;;;;;;2083376;28;20037;-69
2023/04/27 01:26:36;;;;;;;18.77;10.60;;;3.30;99.90;;;;;;2072837;28;20030;-69
2023/04/27 01:27:37;;;;;;;17.05;11.38;;;3.30;99.90;;;;;;2078626;28;20554;-69
2023/04/27 01:28:37;;;;;;;16.35;10.27;;;3.30;99.90;;;;;;2097828;28;20684;-69
2023/04/27 01:29:39;;;;;;;18.48;10.43;;;3.30;99.90;;;;;;2081189;28;20403;-68
2023/04/27 01:30:39;;;;;;;16.48;10.75;;;3.30;99.90;;;;;;2081561;28;20056;-68
2023/04/27 01:31:40;;;;;;;16.15;10.77;;;3.30;99.90;;;;;;2092098;28;20035;-68
2023/04/27 01:32:40;;;;;;;16.55;10.65;;;3.20;99.90;;;;;;2080917;28;20515;-69
2023/04/27 01:33:41;;;;;;;16.25;10.60;;;3.30;99.90;;;;;;2071076;28;20508;-68
2023/04/27 01:34:42;;;;;;;15.38;10.38;;;3.30;99.90;;;;;;2081413;28;20043;-68
2023/04/27 01:35:42;;;;;;;15.63;10.88;;;3.20;99.90;;;;;;2090313;28;20039;-68
2023/04/27 01:36:43;;;;;;;15.18;10.13;;;3.20;99.90;;;;;;2099955;28;20036;-68
2023/04/27 01:37:43;;;;;;;17.33;10.60;;;3.20;99.90;;;;;;2089544;28;20024;-68
2023/04/27 01:38:44;;;;;;;16.08;10.38;;;3.20;99.90;;;;;;2081403;28;20116;-69
2023/04/27 01:39:46;;;;;;;18.73;10.57;;;3.20;99.90;;;;;;2090433;28;20108;-68
2023/04/27 01:40:47;;;;;;;18.73;10.77;;;3.20;99.90;;;;;;2093628;28;20035;-68
2023/04/27 01:41:48;;;;;;;19.60;10.88;;;3.20;99.90;;;;;;2082992;28;20388;-68
2023/04/27 01:42:48;;;;;;;16.42;9.93;;;3.20;99.90;;;;;;2082904;28;20507;-68
2023/04/27 01:43:49;;;;;;;18.08;10.93;;;3.20;99.90;;;;;;2082841;28;20033;-68
2023/04/27 01:44:49;;;;;;;23.17;11.40;;;3.20;99.90;;;;;;2083011;28;20068;-68
2023/04/27 01:45:50;;;;;;;20.40;11.57;;;3.10;99.90;;;;;;2093638;28;20033;-68
2023/04/27 01:46:50;;;;;;;22.75;12.35;;;3.10;99.90;;;;;;2082804;28;20495;-69
2023/04/27 01:47:51;;;;;;;22.20;12.60;;;3.10;99.90;;;;;;2074343;28;20033;-69
2023/04/27 01:48:53;;;;;;;23.45;12.80;;;3.10;99.90;;;;;;2075231;28;20351;-69
2023/04/27 01:49:54;;;;;;;22.67;12.20;;;3.10;99.90;;;;;;2080830;28;20504;-69
2023/04/27 01:50:54;;;;;;;23.98;11.90;;;3.10;99.90;;;;;;2083074;28;20452;-69
2023/04/27 01:51:55;;;;;;;24.85;12.40;;;3.10;99.90;;;;;;2078631;28;20583;-68
2023/04/27 01:52:55;;;;;;;22.67;11.75;;;3.10;99.90;;;;;;2079113;28;20071;-68
2023/04/27 01:53:56;;;;;;;22.33;12.63;;;3.10;99.90;;;;;;2082555;28;20013;-68
2023/04/27 01:54:57;;;;;;;20.00;11.55;;;3.10;99.90;;;;;;2089157;28;20483;-68
2023/04/27 01:55:58;;;;;;;20.38;11.95;;;3.10;99.90;;;;;;2079757;28;20767;-69
2023/04/27 01:57:00;;;;;;;21.88;12.75;;;3.10;99.90;;;;;;2080971;28;20112;-68
2023/04/27 01:58:01;;;;;;;25.00;12.80;;;3.10;99.90;;;;;;2088868;28;20028;-68
2023/04/27 01:59:01;;;;;;;22.30;12.45;;;3.10;99.90;;;;;;2087978;28;20119;-68
2023/04/27 02:00:04;;;;;;;21.35;11.75;;;3.00;99.90;;;;;;2082644;28;20033;-68
2023/04/27 02:01:21;;;;;;;22.40;12.25;;;3.10;99.90;;;;;;2090742;28;20040;-68
2023/04/27 02:02:22;;;;;;;24.35;12.48;;;3.00;99.90;;;;;;2071643;28;20539;-68
2023/04/27 02:03:22;;;;;;;25.52;12.32;;;3.00;99.90;;;;;;2073736;28;20024;-68
2023/04/27 02:04:24;;;;;;;24.25;12.88;;;3.00;99.90;;;;;;2074504;28;20075;-68
2023/04/27 02:05:25;;;;;;;21.02;11.77;;;3.00;99.90;;;;;;2074394;28;20121;-69
2023/04/27 02:06:27;;;;;;;22.05;12.02;;;3.00;99.90;;;;;;2078969;28;20018;-68
2023/04/27 02:07:27;;;;;;;21.10;11.45;;;3.00;99.90;;;;;;2084496;28;20591;-68
2023/04/27 02:08:29;;;;;;;19.92;11.32;;;3.00;99.90;;;;;;2077083;28;20037;-68
2023/04/27 02:09:30;;;;;;;17.90;10.55;;;3.10;99.90;;;;;;2084540;28;20041;-67
2023/04/27 02:10:31;;;;;;;19.38;11.13;;;3.10;99.90;;;;;;2085989;28;20155;-68
2023/04/27 02:11:31;;;;;;;25.23;11.35;;;3.00;99.90;;;;;;2089432;28;20028;-68
2023/04/27 02:12:33;;;;;;;20.77;11.77;;;3.10;99.90;;;;;;2074486;28;20357;-67
2023/04/27 02:13:33;;;;;;;21.02;11.55;;;3.10;99.90;;;;;;2065588;28;20121;-68
2023/04/27 02:14:35;;;;;;;18.20;11.73;;;3.10;99.90;;;;;;2074034;28;20025;-68
2023/04/27 02:15:35;;;;;;;19.15;11.50;;;3.00;99.90;;;;;;2076308;28;20048;-68
2023/04/27 02:16:36;;;;;;;19.63;11.35;;;3.10;99.90;;;;;;2089901;28;20078;-69
2023/04/27 02:17:37;;;;;;;23.08;12.38;;;3.10;99.90;;;;;;2089452;28;20415;-69
2023/04/27 02:18:39;;;;;;;22.98;12.07;;;3.10;99.90;;;;;;2078226;28;20034;-68
2023/04/27 02:19:39;;;;;;;18.67;11.10;;;3.10;99.90;;;;;;2086347;28;20031;-68
2023/04/27 02:20:40;;;;;;;17.95;11.05;;;3.10;99.90;;;;;;2084512;28;20021;-69
2023/04/27 02:21:41;;;;;;;18.70;11.25;;;3.10;99.90;;;;;;2070871;28;20037;-68
2023/04/27 02:22:43;;;;;;;20.38;11.20;;;3.10;99.90;;;;;;2086668;28;20036;-70
2023/04/27 02:23:43;;;;;;;21.75;11.57;;;3.10;99.90;;;;;;2091356;28;20029;-69
2023/04/27 02:24:44;;;;;;;19.92;12.02;;;3.10;99.90;;;;;;2091576;28;20183;-69
2023/04/27 02:25:45;;;;;;;23.63;11.43;;;3.00;99.90;;;;;;2085353;28;20025;-69
2023/04/27 02:26:46;;;;;;;22.45;12.75;;;3.00;99.90;;;;;;2065948;28;20645;-69
2023/04/27 02:27:47;;;;;;;22.48;12.68;;;3.10;99.90;;;;;;2065976;28;20140;-69
2023/04/27 02:28:48;;;;;;;22.75;12.52;;;3.10;99.90;;;;;;2082518;28;20033;-69
2023/04/27 02:29:49;;;;;;;20.52;11.77;;;3.10;99.90;;;;;;2089525;28;20315;-69
2023/04/27 02:30:50;;;;;;;20.17;12.18;;;3.00;99.90;;;;;;2082542;28;20059;-69
2023/04/27 02:31:50;;;;;;;20.95;11.63;;;3.00;99.90;;;;;;2087522;28;20098;-69
2023/04/27 02:32:51;;;;;;;21.23;11.63;;;3.00;99.90;;;;;;2096519;28;20030;-69
2023/04/27 02:33:52;;;;;;;17.60;11.00;;;3.00;99.90;;;;;;2084338;28;20490;-69
2023/04/27 02:34:52;;;;;;;21.23;12.05;;;3.00;99.90;;;;;;2087150;28;20029;-69
2023/04/27 02:35:53;;;;;;;21.42;11.48;;;3.00;99.90;;;;;;2091264;28;20115;-69
2023/04/27 02:36:55;;;;;;;24.35;12.63;;;3.00;99.90;;;;;;2082450;28;20044;-69
2023/04/27 02:37:55;;;;;;;21.35;12.32;;;3.00;99.90;;;;;;2076155;28;20025;-69
2023/04/27 02:38:56;;;;;;;24.65;12.07;;;3.00;99.90;;;;;;2082721;28;20609;-70
2023/04/27 02:39:56;;;;;;;21.08;12.13;;;3.00;99.90;;;;;;2091249;28;20526;-69
2023/04/27 02:40:57;;;;;;;20.00;11.57;;;3.00;99.90;;;;;;2091398;28;20024;-69
2023/04/27 02:41:58;;;;;;;22.45;11.68;;;3.00;99.90;;;;;;2084604;28;20058;-70
2023/04/27 02:42:58;;;;;;;19.17;11.48;;;3.00;99.90;;;;;;2082209;28;20049;-69
2023/04/27 02:43:59;;;;;;;20.35;11.02;;;3.00;99.90;;;;;;2082423;28;20041;-70
2023/04/27 02:44:59;;;;;;;18.23;11.30;;;3.00;99.90;;;;;;2074250;28;20239;-69
2023/04/27 02:46:03;;;;;;;16.45;10.38;;;3.00;99.90;;;;;;2082539;28;20147;-70
2023/04/27 02:47:04;;;;;;;17.73;10.50;;;3.00;99.90;;;;;;2082376;28;20041;-69
2023/04/27 02:48:05;;;;;;;18.60;10.82;;;3.00;99.90;;;;;;2079828;28;20067;-69
2023/04/27 02:49:08;;;;;;;18.98;10.70;;;3.00;99.90;;;;;;2088202;28;20621;-69
2023/04/27 02:50:08;;;;;;;19.20;10.95;;;3.00;99.90;;;;;;2082187;28;20029;-69
2023/04/27 02:51:10;;;;;;;15.90;9.95;;;3.00;99.90;;;;;;2074208;28;20045;-70
2023/04/27 02:52:10;;;;;;;14.93;10.07;;;3.00;99.90;;;;;;2075669;28;20055;-68
2023/04/27 02:53:11;;;;;;;15.63;10.07;;;3.00;99.90;;;;;;2079837;28;20410;-69
2023/04/27 02:54:12;;;;;;;16.17;9.95;;;3.00;99.90;;;;;;2088655;28;20130;-68
2023/04/27 02:55:13;;;;;;;16.33;10.10;;;3.00;99.90;;;;;;2091127;28;20199;-69
2023/04/27 02:56:13;;;;;;;15.65;10.23;;;3.00;99.90;;;;;;2082028;28;20068;-71
2023/04/27 02:57:14;;;;;;;16.48;10.00;;;3.00;99.90;;;;;;2082334;28;20040;-69
2023/04/27 02:58:15;;;;;;;15.73;9.93;;;3.00;99.90;;;;;;2084199;28;20227;-68
2023/04/27 02:59:16;;;;;;;18.63;11.02;;;3.00;99.90;;;;;;2074099;28;20041;-69
2023/04/27 03:00:17;;;;;;;18.40;10.13;;;3.00;99.90;;;;;;2073876;28;20021;-69
2023/04/27 03:01:18;;;;;;;18.25;11.00;;;3.00;99.90;;;;;;2083319;28;20087;-69
2023/04/27 03:02:19;;;;;;;17.40;10.40;;;3.00;99.90;;;;;;2083548;28;20118;-69
2023/04/27 03:03:20;;;;;;;14.45;9.98;;;3.00;99.90;;;;;;2081110;28;20053;-69
2023/04/27 03:04:20;;;;;;;17.33;9.77;;;3.00;99.90;;;;;;2074994;28;20042;-69
2023/04/27 03:05:25;;;;;;;16.45;10.13;;;3.00;99.90;;;;;;2090489;28;20058;-69
2023/04/27 03:06:26;;;;;;;16.58;10.35;;;3.00;99.90;;;;;;2085672;28;20110;-69
2023/04/27 03:07:27;;;;;;;18.00;10.32;;;3.00;99.90;;;;;;2075547;28;20039;-69
2023/04/27 03:08:27;;;;;;;18.63;10.60;;;3.00;99.90;;;;;;2073866;28;20121;-69
2023/04/27 03:09:28;;;;;;;19.10;10.88;;;3.00;99.90;;;;;;2075900;28;20576;-69
2023/04/27 03:10:28;;;;;;;17.23;10.35;;;2.90;99.90;;;;;;2080520;28;20319;-69
2023/04/27 03:11:29;;;;;;;16.17;10.48;;;2.90;99.90;;;;;;2087155;28;20108;-69
2023/04/27 03:12:31;;;;;;;17.80;10.65;;;2.90;99.90;;;;;;2084428;28;20040;-69
2023/04/27 03:13:40;;;;;;;16.30;10.45;;;2.90;99.90;;;;;;2091247;28;20086;-69
2023/04/27 03:14:41;;;;;;;19.10;11.10;;;2.90;99.90;;;;;;2098875;28;20077;-69
2023/04/27 03:15:41;;;;;;;18.15;10.48;;;2.90;99.90;;;;;;2089138;28;20356;-69
2023/04/27 03:16:42;;;;;;;17.15;10.32;;;2.90;99.90;;;;;;2085122;28;20519;-69
2023/04/27 03:17:43;;;;;;;21.58;10.38;;;2.80;99.90;;;;;;2091277;28;20024;-68
2023/04/27 03:18:43;;;;;;;17.20;9.88;;;2.90;99.90;;;;;;2093287;28;20411;-69
2023/04/27 03:19:46;;;;;;;17.38;10.23;;;2.90;99.90;;;;;;2082284;28;20110;-69
2023/04/27 03:20:47;;;;;;;19.77;10.45;;;2.90;99.90;;;;;;2073791;28;20021;-69
2023/04/27 03:21:48;;;;;;;15.95;10.27;;;2.80;99.90;;;;;;2074024;28;20032;-69
2023/04/27 03:22:49;;;;;;;17.88;10.23;;;2.80;99.90;;;;;;2082220;28;20036;-69
2023/04/27 03:23:49;;;;;;;17.15;10.23;;;2.80;99.90;;;;;;2080094;28;20028;-69
2023/04/27 03:24:50;;;;;;;17.33;9.90;;;2.80;99.90;;;;;;2082207;28;20028;-69
2023/04/27 03:25:52;;;;;;;18.52;10.13;;;2.80;99.90;;;;;;2086552;28;20059;-69
2023/04/27 03:26:53;;;;;;;19.73;10.38;;;2.80;99.90;;;;;;2090966;28;20044;-69
2023/04/27 03:27:55;;;;;;;19.30;10.63;;;2.80;99.90;;;;;;2090961;28;20050;-69
2023/04/27 03:28:56;;;;;;;16.45;10.05;;;2.80;99.90;;;;;;2079624;28;20028;-70
2023/04/27 03:29:57;;;;;;;20.45;10.55;;;2.80;99.90;;;;;;2077282;28;20208;-69
2023/04/27 03:30:57;;;;;;;22.38;10.88;;;2.80;99.90;;;;;;2091074;28;20020;-69
2023/04/27 03:31:58;;;;;;;18.98;10.82;;;2.80;99.90;;;;;;2083537;28;20037;-69
2023/04/27 03:32:59;;;;;;;16.88;10.10;;;2.80;99.90;;;;;;2091017;28;20040;-70
2023/04/27 03:33:59;;;;;;;18.77;10.27;;;2.80;99.90;;;;;;2092847;28;20064;-70
2023/04/27 03:35:00;;;;;;;22.45;10.70;;;2.80;99.90;;;;;;2083381;28;20064;-69
2023/04/27 03:36:01;;;;;;;17.60;10.23;;;2.80;99.90;;;;;;2085178;28;20020;-70
2023/04/27 03:37:02;;;;;;;20.80;10.55;;;2.80;99.90;;;;;;2065672;28;20065;-71
2023/04/27 03:38:02;;;;;;;15.60;9.73;;;2.80;99.90;;;;;;2080183;28;20047;-70
2023/04/27 03:39:03;;;;;;;21.27;10.38;;;2.80;99.90;;;;;;2091297;28;20472;-70
2023/04/27 03:40:06;;;;;;;14.93;9.63;;;2.80;99.90;;;;;;2092201;28;20070;-70
2023/04/27 03:41:07;;;;;;;16.38;9.75;;;2.80;99.90;;;;;;2085325;28;20507;-70
2023/04/27 03:42:09;;;;;;;15.45;9.40;;;2.80;99.90;;;;;;2084160;28;20059;-70
2023/04/27 03:43:10;;;;;;;14.57;9.40;;;2.80;99.90;;;;;;2081531;28;20072;-70
2023/04/27 03:44:10;;;;;;;14.77;9.30;;;2.80;99.90;;;;;;2073633;28;20033;-70
2023/04/27 03:45:11;;;;;;;15.07;9.57;;;2.80;99.90;;;;;;2073963;28;20045;-70
2023/04/27 03:46:12;;;;;;;15.85;9.18;;;2.80;99.90;;;;;;2073723;28;20091;-70
2023/04/27 03:47:12;;;;;;;14.05;9.27;;;2.80;99.90;;;;;;2087583;28;20139;-70
2023/04/27 03:48:15;;;;;;;14.98;9.52;;;2.80;99.90;;;;;;2084883;28;20025;-70
2023/04/27 03:49:16;;;;;;;16.88;8.82;;;2.80;99.90;;;;;;2077202;28;20060;-68
2023/04/27 03:50:16;;;;;;;17.30;9.55;;;2.80;99.90;;;;;;2085078;28;20040;-70
2023/04/27 03:51:18;;;;;;;16.17;9.95;;;2.80;99.90;;;;;;2083698;28;20115;-68
2023/04/27 03:52:20;;;;;;;16.38;10.20;;;2.80;99.90;;;;;;2077086;28;20554;-71
2023/04/27 03:53:21;;;;;;;17.88;9.55;;;2.80;99.90;;;;;;2073587;28;20449;-69
2023/04/27 03:54:21;;;;;;;16.95;10.00;;;2.80;99.90;;;;;;2065467;28;20058;-69
2023/04/27 03:55:22;;;;;;;16.17;9.73;;;2.70;99.90;;;;;;2073752;28;20032;-68
2023/04/27 03:56:23;;;;;;;13.85;9.27;;;2.80;99.90;;;;;;2098710;28;20031;-68
2023/04/27 03:57:25;;;;;;;13.70;9.70;;;2.80;99.90;;;;;;2083647;28;20507;-69
2023/04/27 03:58:25;;;;;;;14.55;8.90;;;2.70;99.90;;;;;;2077071;28;20470;-69
2023/04/27 03:59:42;;;;;;;15.18;9.23;;;2.80;99.90;;;;;;2079063;28;20164;-70
2023/04/27 04:00:42;;;;;;;13.95;9.15;;;2.80;99.90;;;;;;2082142;28;20065;-70
2023/04/27 04:01:43;;;;;;;16.20;9.40;;;2.80;99.90;;;;;;2090905;28;20056;-70
2023/04/27 04:02:44;;;;;;;14.98;9.30;;;2.80;99.90;;;;;;2092600;28;20027;-70
2023/04/27 04:03:46;;;;;;;13.05;9.02;;;2.80;99.90;;;;;;2080646;28;20117;-70
2023/04/27 04:04:46;;;;;;;13.25;9.40;;;2.80;99.90;;;;;;2081788;28;20025;-70
2023/04/27 04:05:47;;;;;;;12.73;9.20;;;2.80;99.90;;;;;;2081756;28;20518;-69
2023/04/27 04:06:48;;;;;;;14.32;9.50;;;2.90;99.90;;;;;;2082001;28;20050;-69
2023/04/27 04:07:48;;;;;;;13.88;9.52;;;2.90;99.90;;;;;;2092447;28;20028;-70
2023/04/27 04:08:49;;;;;;;13.80;9.38;;;2.90;99.90;;;;;;2083801;28;20050;-70
2023/04/27 04:09:50;;;;;;;16.55;9.38;;;2.90;99.90;;;;;;2075467;28;20417;-70
2023/04/27 04:10:52;;;;;;;14.75;9.43;;;2.90;99.90;;;;;;2081811;28;20229;-71
2023/04/27 04:11:52;;;;;;;13.40;9.10;;;2.90;99.90;;;;;;2091933;28;20040;-70
2023/04/27 04:12:53;;;;;;;15.55;9.55;;;3.00;99.90;;;;;;2081507;28;20617;-70
2023/04/27 04:13:54;;;;;;;13.93;8.82;;;2.90;99.90;;;;;;2065214;28;20427;-70
2023/04/27 04:14:55;;;;;;;17.30;8.70;;;3.00;99.90;;;;;;2081230;28;20319;-71
2023/04/27 04:16:03;;;;;;;13.82;8.65;;;3.00;99.90;;;;;;2083834;28;20120;-68
2023/04/27 04:17:04;;;;;;;13.30;8.40;;;3.00;99.90;;;;;;2092659;28;20075;-68
2023/04/27 04:18:05;;;;;;;15.25;8.90;;;3.00;99.90;;;;;;2081684;28;20028;-68
2023/04/27 04:19:06;;;;;;;14.30;8.75;;;3.10;99.90;;;;;;2081696;28;20079;-68
2023/04/27 04:20:10;;;;;;;14.60;8.68;;;3.10;99.90;;;;;;2073789;28;20029;-68
2023/04/27 04:21:10;;;;;;;13.65;8.55;;;3.10;99.90;;;;;;2081828;28;20064;-68
2023/04/27 04:22:11;;;;;;;12.52;8.27;;;3.10;99.90;;;;;;2083248;28;20096;-67
2023/04/27 04:23:13;;;;;;;12.57;8.45;;;3.10;99.90;;;;;;2070761;28;20086;-68
2023/04/27 04:24:14;;;;;;;14.00;8.90;;;3.10;99.90;;;;;;2072506;28;20033;-69
2023/04/27 04:25:15;;;;;;;13.15;8.73;;;3.20;99.90;;;;;;2069948;28;20069;-68
2023/04/27 04:26:16;;;;;;;11.80;8.65;;;3.20;99.90;;;;;;2083819;28;20029;-69
2023/04/27 04:27:17;;;;;;;13.27;8.93;;;3.20;99.90;;;;;;2086914;28;20028;-69
2023/04/27 04:28:17;;;;;;;14.05;9.82;;;3.20;99.90;;;;;;2086391;28;20028;-67
2023/04/27 04:29:18;;;;;;;23.30;14.73;;;3.20;99.90;;;;;;2070715;28;20392;-67
2023/04/27 04:30:18;;;;;;;25.63;17.85;;;3.30;99.90;;;;;;2075681;28;20416;-68
2023/04/27 04:31:20;;;;;;;25.35;17.42;;;3.20;99.90;;;;;;2077024;28;20025;-68
2023/04/27 04:32:21;;;;;;;25.00;16.92;;;3.30;99.90;;;;;;2081973;28;20029;-68
2023/04/27 04:33:25;;;;;;;23.85;14.93;;;3.30;99.90;;;;;;2082121;28;20043;-68
2023/04/27 04:34:26;;;;;;;22.45;13.68;;;3.30;99.90;;;;;;2079802;28;20037;-68
2023/04/27 04:35:26;;;;;;;17.27;11.40;;;3.30;99.90;;;;;;2081912;28;20543;-68
2023/04/27 04:36:27;;;;;;;16.42;10.32;;;3.30;99.90;;;;;;2073487;28;20018;-68
2023/04/27 04:37:31;;;;;;;14.95;10.02;;;3.40;99.90;;;;;;2081690;28;20532;-68
2023/04/27 04:38:32;;;;;;;15.05;9.63;;;3.40;99.90;;;;;;2073310;28;20060;-68
2023/04/27 04:39:34;;;;;;;15.57;9.57;;;3.40;99.90;;;;;;2073721;28;20080;-69
2023/04/27 04:40:41;;;;;;;16.05;9.27;;;3.40;99.90;;;;;;2079045;28;20241;-70
2023/04/27 04:41:41;;;;;;;14.07;8.70;;;3.50;99.90;;;;;;2082069;28;20197;-70
2023/04/27 04:42:45;;;;;;;16.45;9.40;;;3.50;99.90;;;;;;2081629;28;20037;-69
2023/04/27 04:43:48;;;;;;;15.27;9.30;;;3.60;99.90;;;;;;2085348;28;20021;-70
2023/04/27 04:44:50;;;;;;;13.82;8.75;;;3.60;99.90;;;;;;2093251;28;20013;-70
2023/04/27 04:45:51;;;;;;;18.60;9.73;;;3.60;99.90;;;;;;2081837;28;20116;-69
2023/04/27 04:46:51;;;;;;;16.48;9.95;;;3.70;99.90;;;;;;2067280;28;20026;-69
2023/04/27 04:47:53;;;;;;;15.95;9.52;;;3.70;99.90;;;;;;2081502;28;20060;-69
2023/04/27 04:48:54;;;;;;;14.10;9.60;;;3.70;99.90;;;;;;2089734;28;20094;-69
2023/04/27 04:49:55;;;;;;;15.85;9.77;;;3.80;99.90;;;;;;2082111;28;20122;-69
2023/04/27 04:50:56;;;;;;;14.80;9.70;;;3.80;99.90;;;;;;2078764;28;20033;-70
2023/04/27 04:51:57;;;;;;;14.15;9.57;;;3.80;99.90;;;;;;2073110;28;20029;-71
2023/04/27 04:52:57;;;;;;;14.18;9.38;;;3.80;99.90;;;;;;2081258;28;20027;-71
2023/04/27 04:53:58;;;;;;;17.35;9.70;;;3.80;99.90;;;;;;2066130;28;20022;-70
2023/04/27 04:54:59;;;;;;;16.15;9.88;;;3.90;99.90;;;;;;2074554;28;20731;-70
2023/04/27 04:56:11;;;;;;;17.00;9.45;;;3.90;99.90;;;;;;2083356;28;20029;-70
2023/04/27 04:57:11;;;;;;;14.25;9.60;;;3.90;99.90;;;;;;2081155;28;20427;-71
2023/04/27 04:58:12;;;;;;;17.80;9.75;;;4.00;99.90;;;;;;2090414;28;20024;-70
2023/04/27 04:59:12;;;;;;;14.82;9.27;;;4.10;99.90;;;;;;2089968;28;20056;-70
2023/04/27 05:00:13;;;;;;;16.95;9.63;;;4.20;99.90;;;;;;2079998;28;20029;-70
2023/04/27 05:01:14;;;;;;;14.63;9.32;;;4.30;99.90;;;;;;2081084;28;20140;-70
2023/04/27 05:02:15;;;;;;;13.13;9.43;;;4.50;99.90;;;;;;2079113;28;20407;-71
2023/04/27 05:03:16;;;;;;;15.07;9.10;;;4.90;99.90;;;;;;2080483;28;20037;-71
2023/04/27 05:04:17;;;;;;;14.45;9.35;;;5.20;99.90;;;;;;2081411;28;20082;-76
2023/04/27 05:05:17;;;;;;;12.32;8.80;;;5.50;99.90;;;;;;2083262;28;20060;-77
2023/04/27 05:06:18;;;;;;;15.57;9.40;;;5.80;99.90;;;;;;2081195;28;20021;-70
2023/04/27 05:07:19;;;;;;;14.65;8.95;;;5.90;99.90;;;;;;2080690;28;20035;-70
2023/04/27 05:08:20;;;;;;;16.35;8.60;;;6.10;99.90;;;;;;2081422;28;20041;-71
2023/04/27 05:09:21;;;;;;;13.57;8.90;;;6.10;99.90;;;;;;2086788;28;20430;-70
2023/04/27 05:10:22;;;;;;;13.35;8.77;;;6.10;99.90;;;;;;2088228;28;20032;-70
2023/04/27 05:11:22;;;;;;;15.30;8.40;;;6.00;99.90;;;;;;2095047;28;20021;-70
2023/04/27 05:12:23;;;;;;;14.50;8.73;;;6.00;99.90;;;;;;2089909;28;20484;-70
2023/04/27 05:13:23;;;;;;;14.20;9.00;;;5.90;99.90;;;;;;2080989;28;20017;-72
2023/04/27 05:14:24;;;;;;;12.75;8.45;;;5.80;99.90;;;;;;2083016;28;20511;-71
2023/04/27 05:15:25;;;;;;;14.65;8.50;;;5.70;99.90;;;;;;2088577;28;20039;-75